Time;durP1;ratioP1;P1;durP2;ratioP2;P2;SDS_P1;SDS_P2;PMS_P1;PMS_P2;Temp;Humidity;BMP_temperature;BMP_pressure;BME280_temperature;BME280_humidity;BME280_pressure;Samples;Min_cycle;Max_cycle;Signal;HPM_P1;HPM_P2
2023/12/18 06:51:41;;;;;;;17.50;6.25;;;-0.20;99.90;;;;;;7584372;19;20374;-75
2023/12/18 06:54:14;;;;;;;9.27;5.78;;;-0.20;99.90;;;;;;7585943;19;20022;-76
2023/12/18 06:56:47;;;;;;;11.32;6.65;;;0.00;99.90;;;;;;7600298;19;20650;-76
2023/12/18 06:59:19;;;;;;;9.52;5.65;;;0.10;99.90;;;;;;7590804;19;20022;-75
2023/12/18 07:01:52;;;;;;;11.73;6.13;;;0.10;99.90;;;;;;7586600;19;20014;-75
2023/12/18 07:04:24;;;;;;;10.02;5.70;;;0.30;99.90;;;;;;7585066;19;21084;-75
2023/12/18 07:06:57;;;;;;;10.13;5.68;;;0.40;99.90;;;;;;7597328;19;20022;-75
2023/12/18 07:09:29;;;;;;;11.95;5.85;;;0.40;99.90;;;;;;7581990;19;20053;-75
2023/12/18 07:12:02;;;;;;;12.32;6.32;;;0.40;99.90;;;;;;7604242;19;20097;-75
2023/12/18 07:14:35;;;;;;;12.15;7.07;;;0.50;99.90;;;;;;7599825;19;20014;-75
2023/12/18 07:17:07;;;;;;;12.60;6.90;;;0.40;99.90;;;;;;7585175;19;20014;-75
2023/12/18 07:19:40;;;;;;;12.48;5.82;;;0.60;99.90;;;;;;7600203;19;20018;-75
2023/12/18 07:22:12;;;;;;;10.87;5.97;;;0.60;99.90;;;;;;7598543;19;20018;-76
2023/12/18 07:24:45;;;;;;;10.05;6.05;;;0.60;99.90;;;;;;7587985;19;20283;-74
2023/12/18 07:27:17;;;;;;;13.80;5.50;;;0.60;99.90;;;;;;7608938;19;20543;-76
2023/12/18 07:29:50;;;;;;;9.23;4.85;;;0.70;99.90;;;;;;7608678;19;20134;-75
2023/12/18 07:32:22;;;;;;;5.60;3.80;;;0.80;99.90;;;;;;7583648;19;20014;-75
2023/12/18 07:34:54;;;;;;;7.57;4.10;;;0.80;99.90;;;;;;7572710;19;20048;-75
2023/12/18 07:37:28;;;;;;;7.68;4.50;;;0.90;99.90;;;;;;7577787;19;20010;-75
2023/12/18 07:40:02;;;;;;;6.47;3.58;;;1.00;99.90;;;;;;7621996;19;20407;-75
2023/12/18 07:42:34;;;;;;;5.85;3.72;;;1.10;99.90;;;;;;7611621;19;20014;-75
2023/12/18 07:45:07;;;;;;;7.57;3.30;;;1.20;99.90;;;;;;7614763;19;20021;-77
2023/12/18 07:47:41;;;;;;;4.22;3.25;;;1.30;99.90;;;;;;7608274;19;20026;-75
2023/12/18 07:50:13;;;;;;;;;;;1.40;99.90;;;;;;7617513;19;20014;-75
2023/12/18 07:52:46;;;;;;;6.95;3.53;;;1.40;99.90;;;;;;7601358;19;20011;-75
2023/12/18 07:55:18;;;;;;;4.00;3.10;;;1.50;99.90;;;;;;7607304;19;21209;-75
2023/12/18 07:57:50;;;;;;;6.85;2.97;;;1.60;99.90;;;;;;7619341;19;20268;-76
2023/12/18 08:00:22;;;;;;;5.57;3.40;;;1.60;99.90;;;;;;7613926;19;20085;-77
2023/12/18 08:02:55;;;;;;;4.25;2.92;;;1.60;99.90;;;;;;7577519;19;20033;-76
2023/12/18 08:05:28;;;;;;;5.38;2.90;;;1.80;99.90;;;;;;7579828;19;20014;-76
2023/12/18 08:08:00;;;;;;;3.90;2.67;;;1.80;99.90;;;;;;7573592;19;20014;-76
2023/12/18 08:10:33;;;;;;;4.60;2.78;;;1.80;99.90;;;;;;7564639;19;20033;-75
2023/12/18 08:13:06;;;;;;;8.57;3.70;;;1.90;99.90;;;;;;7585863;19;20055;-76
2023/12/18 08:15:38;;;;;;;7.85;3.50;;;1.90;99.90;;;;;;7581057;19;20060;-75
2023/12/18 08:18:15;;;;;;;6.67;3.33;;;2.00;99.90;;;;;;7589120;19;20011;-76
2023/12/18 08:20:47;;;;;;;10.32;3.60;;;2.10;99.90;;;;;;7593479;19;20028;-75
2023/12/18 08:23:20;;;;;;;11.23;3.65;;;2.30;99.90;;;;;;7593621;19;20562;-76
2023/12/18 08:25:52;;;;;;;9.50;3.80;;;2.40;99.90;;;;;;7591704;19;20014;-76
2023/12/18 08:28:25;;;;;;;6.00;4.00;;;2.60;99.90;;;;;;7592958;19;20022;-76
2023/12/18 08:30:57;;;;;;;6.35;3.65;;;2.70;99.90;;;;;;7580234;19;20026;-75
2023/12/18 08:33:30;;;;;;;6.70;3.80;;;2.70;99.90;;;;;;7590624;19;20369;-77
2023/12/18 08:36:03;;;;;;;9.07;4.70;;;2.80;99.90;;;;;;7580723;19;20014;-77
2023/12/18 08:38:35;;;;;;;8.82;4.72;;;2.80;99.90;;;;;;7591508;19;20867;-76
2023/12/18 08:41:07;;;;;;;8.40;4.60;;;2.90;99.90;;;;;;7591857;19;20011;-77
2023/12/18 08:43:42;;;;;;;8.88;5.03;;;2.90;99.90;;;;;;7590271;19;20015;-77
2023/12/18 08:46:17;;;;;;;7.28;4.28;;;2.90;99.90;;;;;;7597348;19;20014;-77
2023/12/18 08:48:50;;;;;;;7.23;4.10;;;3.00;99.90;;;;;;7594194;19;20709;-76
2023/12/18 08:51:22;;;;;;;6.75;3.80;;;3.10;99.90;;;;;;7550086;19;20912;-77
2023/12/18 08:53:55;;;;;;;6.85;3.85;;;3.20;99.90;;;;;;7560712;19;21599;-76
2023/12/18 08:56:28;;;;;;;8.07;4.10;;;3.20;99.90;;;;;;7580766;19;20391;-75
2023/12/18 08:59:00;;;;;;;7.85;4.35;;;3.20;99.90;;;;;;7598760;19;20011;-76
2023/12/18 09:01:37;;;;;;;7.40;3.60;;;3.20;99.90;;;;;;7586757;19;20026;-77
2023/12/18 09:04:09;;;;;;;10.07;4.57;;;3.30;99.90;;;;;;7593171;19;20018;-77
2023/12/18 09:06:41;;;;;;;8.03;5.13;;;3.50;99.90;;;;;;7589296;19;20523;-75
2023/12/18 09:09:14;;;;;;;12.93;5.57;;;3.60;99.90;;;;;;7557492;19;20614;-74
2023/12/18 09:11:46;;;;;;;10.25;4.90;;;3.80;99.90;;;;;;7559801;19;20014;-76
2023/12/18 09:14:19;;;;;;;15.55;7.05;;;4.00;99.90;;;;;;7548661;19;20928;-77
2023/12/18 09:16:52;;;;;;;16.48;7.78;;;4.30;99.90;;;;;;7549059;19;20131;-77
2023/12/18 09:19:25;;;;;;;12.75;5.75;;;4.40;99.90;;;;;;7563061;19;20056;-76
2023/12/18 09:21:57;;;;;;;9.00;4.20;;;4.60;99.90;;;;;;7581317;19;21007;-76
2023/12/18 09:24:30;;;;;;;12.30;4.80;;;4.70;99.90;;;;;;7590553;19;20111;-75
2023/12/18 09:27:03;;;;;;;8.85;4.07;;;4.80;99.90;;;;;;7589956;19;20073;-77
2023/12/18 09:29:35;;;;;;;7.13;3.75;;;4.90;99.90;;;;;;7581460;19;20802;-76
2023/12/18 09:32:08;;;;;;;9.15;4.05;;;4.90;99.90;;;;;;7569723;19;20019;-76
2023/12/18 09:34:40;;;;;;;10.60;4.78;;;5.00;99.90;;;;;;7586256;19;20018;-75
2023/12/18 09:37:13;;;;;;;7.10;4.22;;;5.00;99.90;;;;;;7580744;19;20670;-77
2023/12/18 09:39:46;;;;;;;8.95;4.03;;;5.00;99.90;;;;;;7575500;19;20022;-76
2023/12/18 09:42:19;;;;;;;8.00;3.88;;;5.10;99.90;;;;;;7583275;19;20014;-79
2023/12/18 09:44:53;;;;;;;8.98;4.32;;;5.30;99.90;;;;;;7576149;19;20368;-76
2023/12/18 09:47:26;;;;;;;7.57;3.95;;;5.50;99.90;;;;;;7587466;19;20044;-77
2023/12/18 09:50:00;;;;;;;8.70;4.13;;;5.50;99.90;;;;;;7588905;19;20023;-76
2023/12/18 09:52:37;;;;;;;5.90;3.58;;;5.50;99.90;;;;;;7585010;19;20026;-75
2023/12/18 09:55:10;;;;;;;8.43;3.53;;;5.50;99.90;;;;;;7565089;19;20014;-77
2023/12/18 09:57:44;;;;;;;5.20;2.93;;;5.50;99.90;;;;;;7571028;19;20018;-76
2023/12/18 10:00:16;;;;;;;10.27;3.65;;;5.50;99.90;;;;;;7575955;19;20019;-76
2023/12/18 10:02:49;;;;;;;5.23;2.70;;;5.60;99.90;;;;;;7579030;19;20026;-76
2023/12/18 10:05:21;;;;;;;2.95;2.00;;;5.70;99.90;;;;;;7572469;19;20021;-76
2023/12/18 10:07:54;;;;;;;2.25;1.67;;;5.70;99.90;;;;;;7568742;19;20047;-76
2023/12/18 10:10:27;;;;;;;2.38;1.50;;;5.90;99.90;;;;;;7571339;19;20437;-76
2023/12/18 10:13:03;;;;;;;2.50;1.30;;;6.00;99.90;;;;;;7564522;19;20022;-75
2023/12/18 10:15:35;;;;;;;3.67;1.80;;;6.20;99.90;;;;;;7570754;19;20018;-76
2023/12/18 10:18:09;;;;;;;3.70;1.77;;;6.50;99.90;;;;;;7570304;19;20319;-76
2023/12/18 10:20:43;;;;;;;4.05;1.52;;;6.80;99.90;;;;;;7546660;19;20774;-76
2023/12/18 10:23:16;;;;;;;5.47;1.80;;;7.00;99.90;;;;;;7560851;19;21146;-76
2023/12/18 10:25:48;;;;;;;4.82;2.50;;;7.60;99.90;;;;;;7560556;19;20018;-77
2023/12/18 10:28:22;;;;;;;2.60;1.83;;;8.30;99.90;;;;;;7545999;19;20022;-77
2023/12/18 10:30:56;;;;;;;6.18;1.77;;;8.30;99.90;;;;;;7562270;19;20046;-77
2023/12/18 10:33:29;;;;;;;2.25;1.45;;;8.20;99.90;;;;;;7566317;19;20021;-77
2023/12/18 10:36:04;;;;;;;2.38;1.50;;;8.10;99.90;;;;;;7563309;19;20018;-77
2023/12/18 10:38:40;;;;;;;2.58;1.20;;;8.10;99.90;;;;;;7568389;19;20018;-77
2023/12/18 10:41:14;;;;;;;3.72;1.80;;;8.20;99.90;;;;;;7572010;19;20018;-76
2023/12/18 10:43:49;;;;;;;2.33;1.42;;;8.30;99.90;;;;;;7546916;19;20018;-77
2023/12/18 10:46:24;;;;;;;3.08;1.30;;;8.30;99.90;;;;;;7571798;19;20018;-77
2023/12/18 10:48:59;;;;;;;2.15;1.23;;;8.50;99.90;;;;;;7579966;19;20010;-77
2023/12/18 10:51:33;;;;;;;2.45;1.42;;;8.60;99.90;;;;;;7583247;19;20049;-77
2023/12/18 10:54:07;;;;;;;3.33;1.52;;;8.60;99.90;;;;;;7584092;19;20856;-77
2023/12/18 10:56:43;;;;;;;2.58;1.45;;;8.60;99.90;;;;;;7590702;19;20136;-77
2023/12/18 10:59:18;;;;;;;3.10;1.50;;;8.60;99.90;;;;;;7590212;19;20003;-77
2023/12/18 11:01:51;;;;;;;2.42;1.27;;;8.70;99.90;;;;;;7584584;19;20369;-77
2023/12/18 11:04:24;;;;;;;1.57;1.20;;;8.70;99.90;;;;;;7590386;19;20052;-77
2023/12/18 11:06:58;;;;;;;1.98;1.30;;;8.80;99.90;;;;;;7587295;19;20019;-78
2023/12/18 11:09:30;;;;;;;;;;;9.00;99.90;;;;;;7586575;19;20010;-76
2023/12/18 11:12:04;;;;;;;2.05;1.42;;;9.00;99.90;;;;;;7582712;19;20990;-76
2023/12/18 11:14:47;;;;;;;2.83;1.60;;;9.20;99.90;;;;;;7580626;19;20025;-76
2023/12/18 11:17:31;;;;;;;2.70;1.70;;;9.30;99.90;;;;;;7580425;19;20018;-77
2023/12/18 11:20:37;;;;;;;2.22;1.40;;;9.40;99.90;;;;;;7569053;19;20847;-76
2023/12/18 11:23:13;;;;;;;2.45;1.48;;;9.60;99.90;;;;;;7573113;19;20537;-77
2023/12/18 11:25:49;;;;;;;2.47;1.50;;;9.70;99.90;;;;;;7570189;19;20023;-78
2023/12/18 11:28:25;;;;;;;1.55;1.20;;;9.70;99.90;;;;;;7589646;19;20662;-78
2023/12/18 11:31:00;;;;;;;;;;;9.70;99.90;;;;;;7586747;19;20838;-76
2023/12/18 11:33:34;;;;;;;2.85;1.52;;;10.00;99.90;;;;;;7578621;19;20638;-77
2023/12/18 11:36:17;;;;;;;2.05;1.10;;;10.20;99.90;;;;;;7573598;19;20620;-76
2023/12/18 11:38:50;;;;;;;6.80;1.40;;;10.70;99.90;;;;;;7580589;19;20639;-77
2023/12/18 11:41:47;;;;;;;1.98;1.70;;;11.00;99.90;;;;;;7595997;19;20045;-77
2023/12/18 11:44:21;;;;;;;5.22;4.10;;;13.20;99.70;;;;;;7596770;19;20010;-76
2023/12/18 11:46:54;;;;;;;3.72;2.22;;;17.00;98.90;;;;;;7594844;19;20484;-77
2023/12/18 11:49:26;;;;;;;2.13;1.70;;;19.50;86.30;;;;;;7588552;19;20042;-77
2023/12/18 11:52:17;;;;;;;3.70;2.05;;;17.90;83.20;;;;;;7586802;19;20290;-78
2023/12/18 11:54:49;;;;;;;4.38;1.50;;;17.50;80.10;;;;;;7595687;19;20030;-78
2023/12/18 11:57:22;;;;;;;2.30;1.73;;;16.80;84.30;;;;;;7582347;19;20007;-76
2023/12/18 11:59:55;;;;;;;3.22;2.92;;;15.80;78.30;;;;;;7579111;19;21382;-76
2023/12/18 12:02:29;;;;;;;;;;;16.90;83.00;;;;;;7565329;19;20010;-77
2023/12/18 12:05:05;;;;;;;6.40;3.40;;;18.60;73.10;;;;;;7583776;19;19922;-76
2023/12/18 12:07:39;;;;;;;4.60;2.83;;;17.70;70.50;;;;;;7587469;19;20043;-77
2023/12/18 12:10:12;;;;;;;4.75;2.08;;;16.40;72.60;;;;;;7590934;19;20060;-77
2023/12/18 12:12:44;;;;;;;1.83;1.38;;;16.70;71.80;;;;;;7581342;19;21726;-76
2023/12/18 12:15:18;;;;;;;4.95;1.95;;;15.70;71.80;;;;;;7576718;19;20026;-76
2023/12/18 12:18:00;;;;;;;4.63;1.60;;;15.70;71.80;;;;;;7589542;19;20033;-79
2023/12/18 12:20:32;;;;;;;3.03;1.92;;;14.60;75.60;;;;;;7587009;19;20568;-77
2023/12/18 12:23:05;;;;;;;4.97;2.30;;;14.10;75.90;;;;;;7574912;19;20582;-77
2023/12/18 12:25:38;;;;;;;7.72;2.17;;;14.00;75.70;;;;;;7573576;19;20719;-76
2023/12/18 12:28:11;;;;;;;4.78;1.90;;;14.50;72.70;;;;;;7562880;19;20026;-77
2023/12/18 12:30:44;;;;;;;2.17;1.50;;;13.70;77.90;;;;;;7557902;19;20459;-76
2023/12/18 12:33:16;;;;;;;3.15;1.60;;;13.50;80.10;;;;;;7583209;19;20022;-77
2023/12/18 12:35:49;;;;;;;2.45;1.42;;;13.30;79.60;;;;;;7539356;19;20018;-77
2023/12/18 12:38:21;;;;;;;3.03;1.30;;;13.80;76.40;;;;;;7582120;19;21109;-78
2023/12/18 12:40:54;;;;;;;3.17;1.20;;;14.20;77.90;;;;;;7570252;19;20011;-77
2023/12/18 12:43:27;;;;;;;5.07;1.63;;;13.70;74.40;;;;;;7558628;19;20555;-77
2023/12/18 12:45:59;;;;;;;1.83;1.38;;;13.50;76.70;;;;;;7570816;19;26391;-76
2023/12/18 12:48:34;;;;;;;2.97;1.02;;;13.70;73.90;;;;;;7591512;19;20021;-77
2023/12/18 12:51:08;;;;;;;3.20;1.95;;;13.70;77.20;;;;;;7557314;19;20064;-76
2023/12/18 12:53:42;;;;;;;2.30;1.30;;;14.40;77.30;;;;;;7564135;19;20105;-77
2023/12/18 12:56:14;;;;;;;2.35;1.38;;;13.80;77.80;;;;;;7552249;19;20674;-77
2023/12/18 12:58:46;;;;;;;4.30;1.45;;;13.50;78.80;;;;;;7571358;19;20021;-77
2023/12/18 13:01:18;;;;;;;5.43;1.73;;;13.40;81.00;;;;;;7571400;19;21682;-77
2023/12/18 13:03:51;;;;;;;3.58;1.60;;;14.40;78.80;;;;;;7543551;19;20708;-77
2023/12/18 13:06:27;;;;;;;4.22;1.25;;;14.80;77.30;;;;;;7568073;19;20799;-76
2023/12/18 13:09:00;;;;;;;3.90;1.20;;;14.30;76.70;;;;;;7571933;19;20025;-76
2023/12/18 13:11:37;;;;;;;1.70;1.20;;;13.80;77.30;;;;;;7556646;19;20101;-77
2023/12/18 13:14:09;;;;;;;2.05;1.15;;;13.40;77.40;;;;;;7562667;19;20462;-78
2023/12/18 13:16:46;;;;;;;5.00;1.20;;;13.00;79.10;;;;;;7579557;19;20018;-77
2023/12/18 13:19:18;;;;;;;2.13;1.33;;;12.90;80.60;;;;;;7580084;19;20014;-78
2023/12/18 13:21:52;;;;;;;2.42;1.40;;;12.90;79.80;;;;;;7580037;19;20598;-77
2023/12/18 13:24:24;;;;;;;;;;;13.20;79.60;;;;;;7566616;19;20014;-76
2023/12/18 13:26:56;;;;;;;3.55;2.08;;;14.40;78.90;;;;;;7585574;19;19926;-76
2023/12/18 13:29:35;;;;;;;4.35;2.70;;;15.00;77.30;;;;;;7563165;19;20621;-78
2023/12/18 13:32:08;;;;;;;4.85;2.45;;;15.10;75.60;;;;;;7559391;19;20014;-78
2023/12/18 13:34:40;;;;;;;5.07;2.00;;;15.70;73.50;;;;;;7567424;19;20423;-78
2023/12/18 13:37:16;;;;;;;3.43;1.87;;;15.10;73.60;;;;;;7574902;19;20026;-76
2023/12/18 13:39:48;;;;;;;2.50;1.83;;;14.80;75.80;;;;;;7557072;19;20014;-76
2023/12/18 13:42:21;;;;;;;2.00;1.52;;;15.20;75.70;;;;;;7574338;19;20015;-77
2023/12/18 13:44:53;;;;;;;2.75;1.60;;;15.20;73.70;;;;;;7569206;19;20010;-76
2023/12/18 13:47:26;;;;;;;2.20;1.70;;;14.90;74.50;;;;;;7572635;19;20029;-77
2023/12/18 13:49:59;;;;;;;6.57;1.70;;;14.40;76.40;;;;;;7562253;19;20056;-77
2023/12/18 13:52:32;;;;;;;3.63;1.50;;;14.60;76.60;;;;;;7557191;19;20114;-77
2023/12/18 13:55:05;;;;;;;2.60;1.48;;;14.20;76.80;;;;;;7548763;19;20707;-76
2023/12/18 13:57:37;;;;;;;;;;;13.70;81.30;;;;;;7580816;19;20022;-76
2023/12/18 14:00:19;;;;;;;2.33;1.30;;;13.60;80.00;;;;;;7583108;19;19934;-76
2023/12/18 14:02:55;;;;;;;3.85;1.70;;;13.70;81.60;;;;;;7580941;19;20010;-76
2023/12/18 14:05:28;;;;;;;2.72;1.25;;;14.10;81.20;;;;;;7568372;19;20018;-77
2023/12/18 14:08:01;;;;;;;2.10;1.42;;;14.20;80.10;;;;;;7577689;19;20899;-77
2023/12/18 14:10:33;;;;;;;2.75;1.45;;;13.50;83.80;;;;;;7582841;19;20010;-77
2023/12/18 14:13:05;;;;;;;2.70;1.42;;;12.90;84.80;;;;;;7559736;19;21236;-77
2023/12/18 14:15:38;;;;;;;3.25;1.48;;;12.50;85.70;;;;;;7580801;19;20014;-76
2023/12/18 14:18:11;;;;;;;2.35;1.58;;;12.00;87.60;;;;;;7552398;19;20025;-77
2023/12/18 14:20:45;;;;;;;3.00;0.93;;;11.80;88.10;;;;;;7571926;19;20060;-77
2023/12/18 14:23:17;;;;;;;2.33;1.20;;;11.50;90.10;;;;;;7565998;19;20023;-78
2023/12/18 14:25:50;;;;;;;1.95;1.30;;;11.40;90.30;;;;;;7578968;19;20018;-76
2023/12/18 14:28:23;;;;;;;2.05;1.25;;;11.20;90.60;;;;;;7585829;19;20914;-76
2023/12/18 14:30:55;;;;;;;4.07;1.17;;;11.00;90.40;;;;;;7581209;19;20054;-76
2023/12/18 14:33:28;;;;;;;3.38;1.45;;;10.70;91.10;;;;;;7581944;19;20025;-77
2023/12/18 14:36:02;;;;;;;2.55;1.52;;;10.50;91.20;;;;;;7610542;19;20011;-77
2023/12/18 14:38:34;;;;;;;3.33;1.20;;;10.30;92.10;;;;;;7585886;19;20022;-76
2023/12/18 14:41:07;;;;;;;7.70;1.63;;;10.00;92.70;;;;;;7594720;19;20070;-77
2023/12/18 14:43:40;;;;;;;3.85;1.60;;;9.90;93.60;;;;;;7584210;19;20023;-75
2023/12/18 14:46:13;;;;;;;5.43;1.48;;;9.80;94.10;;;;;;7584600;19;20015;-76
2023/12/18 14:48:48;;;;;;;8.98;1.70;;;9.70;94.80;;;;;;7589486;19;20020;-77
2023/12/18 14:51:21;;;;;;;5.87;2.47;;;9.60;95.40;;;;;;7584401;19;20025;-77
2023/12/18 14:53:55;;;;;;;5.85;1.60;;;9.40;95.40;;;;;;7586648;19;20283;-76
2023/12/18 14:56:28;;;;;;;4.47;2.00;;;9.20;95.80;;;;;;7589952;19;20010;-77
2023/12/18 14:59:11;;;;;;;8.73;2.10;;;9.00;97.30;;;;;;7581095;19;20015;-76
2023/12/18 15:01:44;;;;;;;7.45;2.40;;;8.80;97.90;;;;;;7599932;19;20018;-77
2023/12/18 15:04:17;;;;;;;5.38;2.20;;;8.60;98.60;;;;;;7591131;19;20056;-78
2023/12/18 15:07:00;;;;;;;9.10;2.75;;;8.60;99.40;;;;;;7594265;19;20018;-77
2023/12/18 15:09:33;;;;;;;7.63;1.98;;;8.40;99.90;;;;;;7587440;19;20011;-76
2023/12/18 15:12:06;;;;;;;9.25;2.40;;;8.40;99.90;;;;;;7575485;19;20028;-78
2023/12/18 15:14:39;;;;;;;11.70;2.70;;;8.20;99.90;;;;;;7601278;19;20133;-75
2023/12/18 15:17:12;;;;;;;7.37;2.70;;;8.10;99.90;;;;;;7593310;19;20022;-77
2023/12/18 15:19:45;;;;;;;13.80;3.13;;;7.90;99.90;;;;;;7588649;19;20070;-77
2023/12/18 15:22:18;;;;;;;9.63;2.60;;;7.80;99.90;;;;;;7585077;19;20548;-77
2023/12/18 15:24:50;;;;;;;7.88;3.08;;;7.70;99.90;;;;;;7597610;19;20049;-77
2023/12/18 15:27:24;;;;;;;10.07;3.53;;;7.60;99.90;;;;;;7594011;19;20462;-77
2023/12/18 15:29:57;;;;;;;15.50;4.00;;;7.50;99.90;;;;;;7589257;19;20085;-78
2023/12/18 15:32:29;;;;;;;10.60;3.20;;;7.30;99.90;;;;;;7596483;19;21118;-77
2023/12/18 15:35:02;;;;;;;6.97;2.78;;;7.20;99.90;;;;;;7597026;19;20142;-77
2023/12/18 15:37:35;;;;;;;10.68;2.95;;;7.20;99.90;;;;;;7576436;19;20480;-77
2023/12/18 15:40:08;;;;;;;6.35;2.70;;;7.10;99.90;;;;;;7578100;19;20103;-77
2023/12/18 15:42:42;;;;;;;7.53;2.40;;;7.00;99.90;;;;;;7598415;19;20019;-78
2023/12/18 15:45:14;;;;;;;7.38;2.67;;;6.80;99.90;;;;;;7590776;19;20019;-77
2023/12/18 15:47:47;;;;;;;9.88;3.72;;;6.70;99.90;;;;;;7596569;19;20035;-77
2023/12/18 15:50:20;;;;;;;18.10;5.47;;;6.60;99.90;;;;;;7601867;19;20918;-77
2023/12/18 15:52:52;;;;;;;57.83;12.20;;;6.40;99.90;;;;;;7602379;19;20022;-77
2023/12/18 15:55:25;;;;;;;27.58;7.72;;;6.40;99.90;;;;;;7594483;19;20013;-76
2023/12/18 15:57:57;;;;;;;41.30;10.30;;;6.30;99.90;;;;;;7607217;19;20060;-77
2023/12/18 16:00:30;;;;;;;35.13;8.88;;;6.30;99.90;;;;;;7596082;19;20030;-76
2023/12/18 16:03:03;;;;;;;36.72;10.23;;;6.20;99.90;;;;;;7599348;19;20408;-75
2023/12/18 16:05:36;;;;;;;23.92;8.20;;;6.20;99.90;;;;;;7609507;19;20025;-79
2023/12/18 16:08:09;;;;;;;22.27;9.23;;;6.20;99.90;;;;;;7594299;19;20357;-76
2023/12/18 16:10:41;;;;;;;20.50;9.02;;;6.20;99.90;;;;;;7602493;19;20089;-76
2023/12/18 16:13:14;;;;;;;19.52;9.50;;;6.20;99.90;;;;;;7582604;19;20026;-76
2023/12/18 16:15:47;;;;;;;14.02;7.40;;;6.50;99.90;;;;;;7600013;19;20022;-76
2023/12/18 16:18:20;;;;;;;24.20;7.80;;;6.50;99.90;;;;;;7594729;19;20018;-77
2023/12/18 16:20:53;;;;;;;12.63;6.97;;;6.70;99.90;;;;;;7593924;19;20015;-77
2023/12/18 16:23:25;;;;;;;19.92;6.82;;;6.70;99.90;;;;;;7567618;19;20022;-77
2023/12/18 16:25:58;;;;;;;14.55;6.60;;;6.70;99.90;;;;;;7589307;19;20456;-76
2023/12/18 16:28:30;;;;;;;13.70;6.80;;;6.60;99.90;;;;;;7587348;19;20094;-76
2023/12/18 16:31:05;;;;;;;10.23;6.97;;;6.60;99.90;;;;;;7583340;19;20105;-76
2023/12/18 16:33:37;;;;;;;11.57;5.93;;;6.50;99.90;;;;;;7591585;19;20129;-77
2023/12/18 16:36:18;;;;;;;14.95;7.43;;;6.30;99.90;;;;;;7584803;19;20014;-76
2023/12/18 16:38:51;;;;;;;12.32;5.97;;;6.20;99.90;;;;;;7594950;19;20018;-76
2023/12/18 16:41:23;;;;;;;14.90;6.57;;;6.10;99.90;;;;;;7598702;19;20021;-77
2023/12/18 16:43:56;;;;;;;15.02;7.53;;;5.90;99.90;;;;;;7603304;19;20033;-77
2023/12/18 16:46:28;;;;;;;17.60;7.50;;;5.70;99.90;;;;;;7596133;19;20018;-76
2023/12/18 16:49:15;;;;;;;17.95;7.38;;;5.60;99.90;;;;;;7604142;19;20007;-77
2023/12/18 16:51:48;;;;;;;15.50;7.95;;;5.40;99.90;;;;;;7599878;19;20014;-76
2023/12/18 16:54:21;;;;;;;13.25;7.45;;;5.50;99.90;;;;;;7573552;19;20097;-76
2023/12/18 16:56:54;;;;;;;17.15;8.45;;;5.40;99.90;;;;;;7597652;19;20120;-76
2023/12/18 16:59:26;;;;;;;13.90;7.47;;;5.30;99.90;;;;;;7589652;19;20032;-75
2023/12/18 17:01:59;;;;;;;13.15;7.18;;;5.30;99.90;;;;;;7598070;19;20746;-76
2023/12/18 17:04:31;;;;;;;15.80;8.05;;;5.20;99.90;;;;;;7593504;19;20010;-76
2023/12/18 17:07:04;;;;;;;14.80;8.68;;;5.10;99.90;;;;;;7595532;19;20450;-76
2023/12/18 17:09:37;;;;;;;15.70;9.70;;;5.00;99.90;;;;;;7584521;19;20018;-77
2023/12/18 17:12:10;;;;;;;15.90;9.15;;;4.90;99.90;;;;;;7601918;19;20018;-76
2023/12/18 17:14:43;;;;;;;21.20;11.07;;;4.90;99.90;;;;;;7593854;19;20022;-76
2023/12/18 17:17:15;;;;;;;16.13;10.23;;;4.80;99.90;;;;;;7591420;19;20011;-76
2023/12/18 17:19:47;;;;;;;16.85;8.95;;;4.80;99.90;;;;;;7595158;19;21179;-75
2023/12/18 17:22:19;;;;;;;19.00;10.20;;;4.70;99.90;;;;;;7589068;19;20099;-77
2023/12/18 17:24:53;;;;;;;19.90;11.02;;;4.70;99.90;;;;;;7605227;19;20527;-77
2023/12/18 17:27:25;;;;;;;22.35;11.68;;;4.60;99.90;;;;;;7595013;19;20018;-76
2023/12/18 17:29:57;;;;;;;19.92;10.30;;;4.40;99.90;;;;;;7598640;19;20014;-77
2023/12/18 17:32:30;;;;;;;19.15;10.52;;;4.30;99.90;;;;;;7572753;19;20018;-77
2023/12/18 17:35:03;;;;;;;25.37;13.30;;;4.20;99.90;;;;;;7562564;19;19999;-77
2023/12/18 17:37:36;;;;;;;21.65;11.05;;;4.10;99.90;;;;;;7564222;19;20044;-76
2023/12/18 17:40:10;;;;;;;23.10;12.68;;;4.10;99.90;;;;;;7590321;19;20019;-76
2023/12/18 17:42:43;;;;;;;23.42;13.32;;;4.00;99.90;;;;;;7590013;19;20119;-77
2023/12/18 17:45:16;;;;;;;24.80;11.63;;;3.90;99.90;;;;;;7580611;19;20014;-77
2023/12/18 17:47:49;;;;;;;18.75;12.02;;;3.80;99.90;;;;;;7564910;19;20026;-77
2023/12/18 17:50:22;;;;;;;26.33;14.93;;;3.80;99.90;;;;;;7594071;19;20031;-75
2023/12/18 17:52:55;;;;;;;23.00;15.05;;;3.80;99.90;;;;;;7588193;19;20026;-76
2023/12/18 17:55:28;;;;;;;25.05;14.20;;;3.70;99.90;;;;;;7592313;19;20140;-77
2023/12/18 17:58:00;;;;;;;45.80;23.98;;;3.70;99.90;;;;;;7582417;19;20385;-76
2023/12/18 18:00:35;;;;;;;46.50;22.27;;;3.70;99.90;;;;;;7574309;19;20056;-77
2023/12/18 18:03:11;;;;;;;35.80;18.60;;;3.80;99.90;;;;;;7587674;19;20015;-78
2023/12/18 18:05:44;;;;;;;33.75;18.50;;;3.90;99.90;;;;;;7581490;19;21979;-77
2023/12/18 18:08:17;;;;;;;35.72;18.27;;;4.20;99.90;;;;;;7577982;19;20682;-77
2023/12/18 18:10:49;;;;;;;31.08;17.75;;;4.10;99.90;;;;;;7590448;19;20023;-77
2023/12/18 18:13:22;;;;;;;33.50;17.10;;;4.00;99.90;;;;;;7589472;19;20537;-76
2023/12/18 18:15:56;;;;;;;30.87;17.10;;;3.90;99.90;;;;;;7598394;19;20551;-77
2023/12/18 18:18:29;;;;;;;34.58;19.00;;;3.80;99.90;;;;;;7598767;19;20927;-77
2023/12/18 18:21:01;;;;;;;38.08;20.95;;;3.70;99.90;;;;;;7560792;19;20052;-77
2023/12/18 18:23:35;;;;;;;38.20;20.30;;;3.50;99.90;;;;;;7580706;19;20104;-77
2023/12/18 18:26:08;;;;;;;41.67;21.20;;;3.40;99.90;;;;;;7584179;19;20014;-76
2023/12/18 18:28:40;;;;;;;38.60;21.25;;;3.30;99.90;;;;;;7568665;19;20014;-77
2023/12/18 18:31:13;;;;;;;44.17;22.23;;;3.20;99.90;;;;;;7582729;19;20011;-76
2023/12/18 18:33:46;;;;;;;33.20;20.27;;;3.10;99.90;;;;;;7569634;19;22075;-76
2023/12/18 18:36:21;;;;;;;40.20;21.38;;;3.10;99.90;;;;;;7579179;19;21758;-77
2023/12/18 18:38:53;;;;;;;38.83;21.20;;;3.10;99.90;;;;;;7582533;19;20014;-77
2023/12/18 18:41:25;;;;;;;33.70;18.73;;;3.10;99.90;;;;;;7574017;19;20022;-77
2023/12/18 18:43:58;;;;;;;33.30;17.42;;;3.00;99.90;;;;;;7562068;19;20385;-76
2023/12/18 18:46:30;;;;;;;36.60;17.60;;;3.40;99.90;;;;;;7569334;19;20431;-76
2023/12/18 18:49:05;;;;;;;29.38;16.20;;;3.60;99.90;;;;;;7577178;19;20074;-76
2023/12/18 18:51:38;;;;;;;24.23;14.02;;;3.80;99.90;;;;;;7587348;19;20018;-76
2023/12/18 18:54:10;;;;;;;26.38;13.68;;;3.90;99.90;;;;;;7568245;19;20649;-76
2023/12/18 18:56:43;;;;;;;22.97;13.27;;;3.90;99.90;;;;;;7587477;19;20086;-77
2023/12/18 18:59:15;;;;;;;25.13;11.43;;;3.90;99.90;;;;;;7579140;19;20055;-77
2023/12/18 19:01:47;;;;;;;24.35;14.63;;;4.00;99.90;;;;;;7569147;19;20448;-77
2023/12/18 19:04:19;;;;;;;25.23;13.38;;;4.00;99.90;;;;;;7573336;19;20018;-76
2023/12/18 19:06:52;;;;;;;25.92;14.95;;;3.90;99.90;;;;;;7586071;19;20015;-76
2023/12/18 19:09:24;;;;;;;40.90;18.67;;;3.80;99.90;;;;;;7582337;19;20006;-78
2023/12/18 19:11:59;;;;;;;40.00;19.50;;;3.90;99.90;;;;;;7586617;19;20023;-76
2023/12/18 19:14:32;;;;;;;28.05;14.55;;;4.00;99.90;;;;;;7566099;19;20033;-76
2023/12/18 19:17:04;;;;;;;27.85;14.18;;;3.80;99.90;;;;;;7574683;19;20019;-77
2023/12/18 19:19:37;;;;;;;25.75;14.05;;;3.60;99.90;;;;;;7576970;19;20085;-77
2023/12/18 19:22:09;;;;;;;30.77;15.50;;;3.40;99.90;;;;;;7582171;19;20046;-76
2023/12/18 19:24:42;;;;;;;26.42;15.63;;;3.20;99.90;;;;;;7569876;19;20015;-77
2023/12/18 19:27:15;;;;;;;33.00;17.50;;;3.10;99.90;;;;;;7552414;19;20018;-77
2023/12/18 19:29:47;;;;;;;37.00;18.47;;;3.10;99.90;;;;;;7582811;19;20022;-77
2023/12/18 19:32:20;;;;;;;48.42;22.10;;;3.00;99.90;;;;;;7572303;19;20360;-76
2023/12/18 19:34:53;;;;;;;38.67;19.95;;;3.00;99.90;;;;;;7576444;19;21056;-77
2023/12/18 19:37:26;;;;;;;39.22;19.73;;;2.90;99.90;;;;;;7575358;19;22126;-77
2023/12/18 19:40:01;;;;;;;33.00;18.02;;;2.90;99.90;;;;;;7590611;19;20035;-76
2023/12/18 19:42:34;;;;;;;30.70;17.33;;;2.80;99.90;;;;;;7575709;19;20023;-76
2023/12/18 19:45:07;;;;;;;33.28;17.63;;;2.80;99.90;;;;;;7567189;19;20011;-76
2023/12/18 19:47:39;;;;;;;33.77;18.13;;;2.70;99.90;;;;;;7579074;19;20728;-75
2023/12/18 19:50:12;;;;;;;32.93;17.83;;;2.60;99.90;;;;;;7573183;19;20318;-75
2023/12/18 19:52:46;;;;;;;30.80;17.08;;;2.50;99.90;;;;;;7570626;19;20019;-76
2023/12/18 19:55:19;;;;;;;33.60;18.20;;;2.40;99.90;;;;;;7575335;19;20141;-76
2023/12/18 19:57:51;;;;;;;35.83;17.90;;;2.40;99.90;;;;;;7578030;19;20025;-76
2023/12/18 20:00:24;;;;;;;30.63;18.25;;;2.50;99.90;;;;;;7580153;19;20263;-76
2023/12/18 20:02:57;;;;;;;29.95;18.40;;;2.60;99.90;;;;;;7574379;19;20109;-76
2023/12/18 20:05:31;;;;;;;34.63;17.77;;;2.90;99.90;;;;;;7585510;19;20056;-76
2023/12/18 20:08:03;;;;;;;33.25;17.77;;;2.90;99.90;;;;;;7583995;19;20019;-76
2023/12/18 20:10:37;;;;;;;31.30;18.02;;;2.90;99.90;;;;;;7582788;19;20014;-77
2023/12/18 20:13:09;;;;;;;37.22;18.67;;;2.90;99.90;;;;;;7587247;19;20053;-75